Terminal Aerodrome Forecast
Issued by NWS Shreveport, LA

Home | Current Version | Previous Version | Text Only | Print | Product List | Glossary On
Versions: 1 2 3 4 5 6 7 8 9 10 11 12 13 14 15 16 17
000
FTUS44 KSHV 202300
TAFSHV
TAF
KSHV 202337Z 2100/2124 19004KT P6SM VCTS FEW060CB SCT250
      TEMPO 2100/2101 17015G30KT
     FM210100 18005KT P6SM SCT250
     FM211400 19007KT P6SM SCT035 SCT250=

USA.gov is the U.S. government's official web portal to all federal, state and local government web resources and services.